Swan Valley, Idaho
Current Conditions -  °F | °C
As of 1:56 AM on Friday 24 Oct 2014 (Local Time) from KDIJ Reporting Station
Overcast Overcast  
Wind Chill:   Ceiling: 9500
Heat Index:   Visibility: 10mi
Dew Point: -1°   Wind: 9mph
Humidity: 50%   Direction: 160°SSE
Pressure: 30.18"   Gusts: NA
Location:  43.46°N, 111.34°W
Report Text: KDIJ 240756Z AUTO 16008KT 10SM OVC095 09/M01 A3018 RMK AO2 T00941005 SLP162
Loading
Personal Weather Stations






























Interactive Weather Map
Tropical Storm Tracking
New forecast layout! Learn more

10-Day Weather Forecast

Advertisements
Track Severe Weather on mobile